Weather observations for the past three days for
Duluth - Sky Harbor Airport
| Date | Time (cdt) | Wind (kph) | Vis. (km) | Weather | Sky Cond. | Temperature (ºC) | Relative Humidity | Wind Chill (°C) | Heat Index (°C) | Pressure | Precipitation (cm) | ||||||
|---|---|---|---|---|---|---|---|---|---|---|---|---|---|---|---|---|---|
| Air | Dwpt | 6 hour | altimeter (cm) | sea level (mb) | 1 hr | 3 hr | 6 hr | ||||||||||
| Max. | Min. | ||||||||||||||||
| 31 | 17:35 | NE 7 | 14.48 | Fair | CLR | 20 | 20 | 100% | 75.74 | 0.0 | |||||||
| 31 | 17:15 | E 7 | 12.87 | Fair | CLR | 20 | 19 | 94% | 75.74 | 0.0 | |||||||
| 31 | 16:55 | Calm | 12.87 | Fair | CLR | 20 | 19 | 94% | 75.74 | 0.0 | |||||||
| 31 | 16:35 | E 6 | 12.87 | Fair | CLR | 19 | 19 | 100% | 75.74 | 0.0 | |||||||
| 31 | 16:15 | Calm | 9.66 | Fog/Mist | CLR | 19 | 19 | 100% | 75.74 | 0.0 | |||||||
| 31 | 15:55 | NE 7 | 4.02 | Fog/Mist | SCT002 | 19 | 19 | 100% | 75.74 | 0.0 | |||||||
| 31 | 15:35 | NE 6 | 0.40 | Light Rain Fog | OVC002 | 19 | 18 | 94% | 75.77 | 0.0 | |||||||
| 31 | 15:15 | NE 7 | 0.40 | Light Rain Fog | OVC003 | 18 | 18 | 100% | 75.74 | 0.0 | |||||||
| 31 | 14:55 | NE 7 | 0.80 | Light Rain Fog | OVC003 | 18 | 18 | 100% | 75.77 | 0.0 | |||||||
| 31 | 14:35 | NE 9 | 0.80 | Light Rain Fog | OVC003 | 19 | 19 | 100% | 75.77 | 0.0 | |||||||
| 31 | 14:15 | E 9 | 2.82 | Unknown Precip Fog/Mist | OVC003 | 19 | 19 | 100% | 75.77 | 0.0 | |||||||
| 31 | 13:55 | NE 9 | 6.44 | Fog/Mist | OVC003 | 19 | 19 | 100% | 75.77 | 0.0 | |||||||
| 31 | 13:35 | NE 9 | 4.83 | Fog/Mist | BKN004 OVC022 | 19 | 19 | 100% | 75.77 | 0.0 | |||||||
| 31 | 13:15 | Vrbl 9 | 2.41 | Unknown Precip Fog/Mist | OVC004 | 19 | 18 | 94% | 75.77 | 0.0 | |||||||
| 31 | 12:55 | NE 9 | 0.80 | Light Rain Fog/Mist | OVC003 | 18 | 18 | 100% | 75.77 | 0.0 | |||||||
| 31 | 12:35 | E 11 | 1.21 | Unknown Precip Fog/Mist | OVC003 | 19 | 19 | 100% | 75.74 | 0.0 | |||||||
| 31 | 12:15 | NE 9 | 0.80 | Unknown Precip Fog/Mist | OVC003 | 18 | 18 | 100% | 75.77 | 0.0 | |||||||
| 31 | 11:55 | NE 11 | 0.80 | Unknown Precip Fog | OVC003 | 19 | 19 | 100% | 75.77 | 0.0 | |||||||
| 31 | 11:35 | NE 9 | 0.40 | Light Rain Fog | OVC003 | 19 | 19 | 100% | 75.74 | 0.0 | |||||||
| 31 | 11:15 | E 7 | 1.21 | Fog/Mist | OVC003 | 19 | 19 | 100% | 75.74 | 0.0 | |||||||
| 31 | 10:55 | Calm | 2.01 | Fog/Mist | OVC003 | 19 | 19 | 100% | 75.74 | 0.0 | |||||||
| 31 | 10:35 | Calm | 4.02 | Fog/Mist | OVC003 | 19 | 19 | 100% | 75.72 | 0.0 | |||||||
| 31 | 10:15 | Calm | 4.83 | Fog/Mist | OVC003 | 19 | 19 | 100% | 75.69 | 0.0 | |||||||
| 31 | 09:55 | Calm | 4.83 | Fog/Mist | OVC003 | 19 | 19 | 100% | 75.69 | 0.0 | |||||||
| 31 | 09:35 | Calm | 4.83 | Fog/Mist | OVC004 | 18 | 18 | 100% | 75.67 | 0.0 | |||||||
| 31 | 09:15 | Calm | 3.22 | Fog/Mist | OVC003 | 18 | 18 | 100% | 75.67 | 0.0 | |||||||
| 31 | 08:55 | Calm | 2.82 | Fog/Mist | OVC003 | 18 | 18 | 100% | 75.64 | 0.0 | |||||||
| 31 | 08:35 | E 9 | 2.01 | Fog/Mist | OVC003 | 18 | 18 | 100% | 75.64 | 0.0 | |||||||
| 31 | 08:15 | E 9 | 1.61 | Fog/Mist | OVC003 | 18 | 18 | 100% | 75.64 | 0.0 | |||||||
| 31 | 07:55 | Calm | 1.61 | Unknown Precip Fog/Mist | OVC002 | 18 | 18 | 100% | 75.67 | 0.0 | |||||||
| 31 | 07:35 | E 11 | 1.21 | Unknown Precip Fog/Mist | OVC003 | 17 | 17 | 100% | 75.67 | 0.0 | |||||||
| 31 | 07:15 | E 13 | 2.41 | Fog/Mist | OVC003 | 17 | 17 | 100% | 75.64 | 0.0 | |||||||
| 31 | 06:55 | NE 15 | 6.44 | Fog/Mist | OVC003 | 17 | 17 | 100% | 75.64 | 0.0 | |||||||
| 31 | 06:35 | NE 19 | 8.05 | Fog/Mist | OVC003 | 17 | 17 | 100% | 75.62 | 0.0 | |||||||
| 31 | 06:15 | NE 11 | 11.27 | Overcast | OVC003 | 17 | 17 | 100% | 75.62 | 0.0 | |||||||
| 31 | 05:55 | E 9 | 9.66 | Fog/Mist | OVC003 | 17 | 17 | 100% | 75.59 | 0.0 | |||||||
| 31 | 05:35 | NE 11 | 9.66 | Fog/Mist | OVC005 | 18 | 18 | 100% | 75.62 | 0.0 | |||||||
| 31 | 05:15 | Vrbl 9 G 22 | 9.66 | Fog/Mist | NULL | 18 | 18 | 100% | 75.62 | 0.0 | |||||||
| 31 | 04:55 | E 15 G 37 | 9.66 | Thunderstorm in Vicinity Unknown Precip Fog/Mist | NULL | 17 | 17 | 100% | 75.62 | 0.0 | 0.03 | ||||||
| 31 | 04:35 | Calm | 8.05 | Thunderstorm in Vicinity Rain Fog/Mist | NULL | 17 | 17 | 100% | 75.67 | 0.0 | |||||||
| 31 | 04:15 | NE 24 G 35 | 14.48 | Thunderstorm in Vicinity | OVC004 | 17 | 17 | 100% | 75.64 | 0.0 | |||||||
| 31 | 03:55 | NE 28 | 11.27 | Overcast | OVC003 | 17 | 17 | 100% | 75.62 | 0.0 | |||||||
| 31 | 03:35 | NE 22 | 4.83 | Fog/Mist | OVC003 | 17 | 17 | 100% | 75.62 | 0.0 | |||||||
| 31 | 03:15 | NE 22 | 0.40 | Fog | OVC002 | 17 | 17 | 100% | 75.62 | 0.0 | |||||||
| 31 | 02:55 | NE 20 | 0.40 | Fog | OVC002 | 16 | 16 | 100% | 75.62 | 0.0 | |||||||
| 31 | 02:35 | NE 22 | 0.80 | Fog | OVC003 | 16 | 16 | 100% | 75.64 | 0.0 | |||||||
| 31 | 02:15 | NE 24 | 4.83 | Fog/Mist | OVC003 | 17 | 17 | 100% | 75.67 | 0.0 | |||||||
| 31 | 01:55 | E 13 | 8.05 | Fog/Mist | OVC003 | 17 | 17 | 100% | 75.67 | 0.0 | |||||||
| 31 | 01:35 | E 15 G 28 | 9.66 | Fog/Mist | OVC003 | 17 | 17 | 100% | 75.69 | 0.0 | |||||||
| 31 | 01:15 | E 31 | 14.48 | Thunderstorm in Vicinity | OVC004 | 17 | 17 | 100% | 75.72 | 0.0 | |||||||
| 31 | 00:55 | NE 33 G 44 | 14.48 | Overcast and Breezy | OVC004 | 17 | 17 | 100% | 75.74 | 0.0 | 0.1 | ||||||
| 31 | 00:35 | Calm | 8.05 | Thunderstorm Light Rain Fog/Mist | BKN004 OVC011 | 0 | 0 | 0% | 0 | 0.0 | |||||||
| 31 | 00:15 | NE 39 G 52 | 6.44 | Light Rain Fog/Mist and Breezy | FEW004 OVC011 | 17 | 17 | 100% | 75.77 | 0.0 | |||||||
| 30 | 23:55 | NE 43 | 11.27 | Thunderstorm in Vicinity Rain and Windy | SCT004 OVC010 | 18 | 18 | 100% | 75.82 | 0.0 | 0.05 | ||||||
| 30 | 23:35 | NE 50 G 59 | 6.44 | Thunderstorm in Vicinity Rain Fog/Mist and Windy | OVC003 | 17 | 17 | 100% | 75.79 | 0.0 | |||||||
| 30 | 23:15 | NE 39 | 6.44 | Thunderstorm in Vicinity Rain Fog/Mist and Breezy | OVC004 | 17 | 17 | 100% | 75.79 | 0.0 | |||||||
| 30 | 22:55 | NE 31 G 41 | 9.66 | Fog/Mist | OVC004 | 17 | 17 | 100% | 75.82 | 0.0 | 0.03 | ||||||
| 30 | 22:35 | NE 35 | 9.66 | Thunderstorm in Vicinity Rain Fog/Mist and Breezy | OVC004 | 17 | 17 | 100% | 75.82 | 0.0 | |||||||
| 30 | 22:15 | NE 31 | 11.27 | Overcast | OVC004 | 17 | 17 | 100% | 75.84 | 0.0 | |||||||
| 30 | 21:55 | NE 28 | 11.27 | Overcast | OVC004 | 17 | 17 | 100% | 75.82 | 0.0 | |||||||
| 30 | 21:35 | NE 30 | 11.27 | Overcast | OVC004 | 17 | 17 | 100% | 75.84 | 0.0 | |||||||
| 30 | 21:15 | E 24 | 12.87 | Overcast | OVC004 | 17 | 17 | 100% | 75.87 | 0.0 | |||||||
| 30 | 20:55 | NE 30 | 12.87 | Overcast | OVC004 | 17 | 17 | 100% | 75.84 | 0.0 | |||||||
| 30 | 20:35 | NE 26 G 37 | 14.48 | Overcast | OVC004 | 17 | 17 | 100% | 75.84 | 0.0 | |||||||
| 30 | 20:15 | NE 31 | 14.48 | Overcast | OVC004 | 17 | 17 | 100% | 75.82 | 0.0 | |||||||
| 30 | 19:55 | NE 35 G 46 | 12.87 | Overcast and Breezy | OVC004 | 17 | 17 | 100% | 75.82 | 0.0 | |||||||
| 30 | 19:35 | NE 37 | 11.27 | Overcast and Breezy | OVC004 | 17 | 17 | 100% | 75.82 | 0.0 | |||||||
| 30 | 19:15 | NE 37 | 11.27 | Overcast and Breezy | OVC004 | 17 | 17 | 100% | 75.84 | 0.0 | |||||||
| 30 | 18:55 | NE 35 | 11.27 | Overcast and Breezy | OVC004 | 17 | 17 | 100% | 75.87 | 0.0 | |||||||
| 30 | 18:35 | NE 35 G 44 | 11.27 | Overcast and Breezy | OVC004 | 17 | 17 | 100% | 75.84 | 0.0 | |||||||
| 30 | 18:15 | NE 31 G 43 | 12.87 | Overcast | OVC004 | 17 | 17 | 100% | 75.9 | 0.0 | |||||||
| 30 | 17:55 | NE 35 | 14.48 | Overcast and Breezy | OVC004 | 17 | 17 | 100% | 75.87 | 0.0 | |||||||
| 30 | 17:35 | NE 37 | 14.48 | Overcast and Breezy | OVC004 | 17 | 17 | 100% | 75.87 | 0.0 | |||||||
| 30 | 17:15 | NE 37 G 48 | 14.48 | Overcast and Breezy | OVC005 | 18 | 18 | 100% | 75.84 | 0.0 | |||||||
| 30 | 16:55 | NE 39 | 14.48 | Overcast and Breezy | OVC004 | 18 | 17 | 94% | 75.87 | 0.0 | |||||||
| 30 | 16:35 | NE 43 G 54 | 11.27 | Windy | NULL | 18 | 18 | 100% | 75.87 | 0.0 | |||||||
| 30 | 16:15 | NE 43 | 11.27 | Overcast and Windy | OVC004 | 18 | 17 | 94% | 75.9 | 0.0 | |||||||
| 30 | 15:55 | NE 41 G 50 | 12.87 | Overcast and Breezy | OVC004 | 17 | 17 | 100% | 75.92 | 0.0 | |||||||
| 30 | 15:35 | NE 41 G 56 | 14.48 | Overcast and Breezy | OVC005 | 18 | 17 | 94% | 75.92 | 0.0 | |||||||
| 30 | 15:15 | NE 43 G 52 | 16.09 | Overcast and Windy | OVC005 | 18 | 18 | 100% | 75.92 | 0.0 | |||||||
| 30 | 14:55 | NE 46 | 16.09 | Mostly Cloudy and Windy | BKN005 | 18 | 18 | 100% | 75.92 | 0.0 | |||||||
| 30 | 14:35 | NE 43 G 52 | 14.48 | Overcast and Windy | OVC004 | 18 | 18 | 100% | 75.92 | 0.0 | |||||||
| 30 | 14:15 | NE 41 G 54 | 11.27 | Overcast and Breezy | OVC004 | 18 | 17 | 94% | 75.9 | 0.0 | |||||||
| 30 | 13:55 | NE 43 | 11.27 | Overcast and Windy | OVC003 | 18 | 18 | 100% | 75.9 | 0.0 | |||||||
| 30 | 13:35 | NE 39 | 11.27 | Overcast and Breezy | OVC004 | 18 | 18 | 100% | 75.9 | 0.0 | |||||||
| 30 | 13:15 | NE 37 G 50 | 11.27 | Overcast and Breezy | OVC004 | 18 | 18 | 100% | 75.9 | 0.0 | |||||||
| 30 | 12:55 | NE 37 | 11.27 | Overcast and Breezy | OVC004 | 17 | 17 | 100% | 75.95 | 0.0 | |||||||
| 30 | 12:35 | NE 35 G 46 | 11.27 | Overcast and Breezy | OVC004 | 17 | 17 | 100% | 75.95 | 0.0 | |||||||
| 30 | 12:15 | NE 41 | 11.27 | Overcast and Breezy | OVC004 | 18 | 17 | 94% | 75.95 | 0.0 | |||||||
| 30 | 11:55 | NE 39 G 48 | 11.27 | Overcast and Breezy | OVC004 | 17 | 17 | 100% | 75.92 | 0.0 | |||||||
| 30 | 11:35 | NE 43 | 14.48 | Overcast and Windy | OVC004 | 18 | 17 | 94% | 75.95 | 0.0 | |||||||
| 30 | 11:15 | NE 39 | 11.27 | Overcast and Breezy | BKN004 OVC016 | 17 | 17 | 100% | 75.95 | 0.0 | |||||||
| 30 | 10:55 | NE 33 G 46 | 8.05 | Light Rain Fog/Mist and Breezy | BKN004 BKN014 | 17 | 17 | 100% | 75.95 | 0.0 | 0.05 | ||||||
| 30 | 10:35 | NE 43 | 6.44 | Light Rain Fog/Mist and Windy | BKN003 BKN013 | 17 | 17 | 100% | 75.95 | 0.0 | |||||||
| 30 | 10:15 | NE 33 G 44 | 3.22 | Light Rain Fog/Mist and Breezy | OVC003 | 17 | 17 | 100% | 76 | 0.0 | |||||||
| 30 | 09:55 | NE 39 | 4.83 | Light Rain Fog/Mist and Breezy | OVC003 | 17 | 17 | 100% | 76 | 0.0 | |||||||
| 30 | 09:35 | NE 30 | 11.27 | Overcast | OVC004 | 17 | 17 | 100% | 75.97 | 0.0 | |||||||
| 30 | 09:15 | NE 33 | 12.87 | Overcast and Breezy | BKN007 OVC013 | 17 | 17 | 100% | 75.92 | 0.0 | |||||||
| 30 | 08:55 | NE 33 | 12.87 | Mostly Cloudy and Breezy | FEW005 BKN013 | 17 | 17 | 100% | 75.92 | 0.0 | |||||||
| 30 | 08:35 | NE 33 G 44 | 9.66 | Fog/Mist and Breezy | BKN003 BKN014 | 17 | 17 | 100% | 75.92 | 0.0 | |||||||
| 30 | 08:15 | NE 33 | 8.05 | Light Rain Fog/Mist and Breezy | OVC003 | 17 | 17 | 100% | 75.92 | 0.0 | |||||||
| 30 | 07:55 | NE 30 | 4.83 | Light Rain Fog/Mist | OVC003 | 17 | 17 | 100% | 75.95 | 0.0 | |||||||
| 30 | 07:35 | NE 31 | 11.27 | Overcast | OVC004 | 17 | 17 | 100% | 75.95 | 0.0 | |||||||
| 30 | 07:15 | NE 26 | 9.66 | Fog/Mist | OVC003 | 17 | 17 | 100% | 75.95 | 0.0 | |||||||
| 30 | 06:55 | NE 26 | 8.05 | Fog/Mist | OVC003 | 17 | 17 | 100% | 75.95 | 0.0 | |||||||
| 30 | 06:35 | NE 24 | 11.27 | Overcast | OVC003 | 17 | 17 | 100% | 75.92 | 0.0 | |||||||
| 30 | 06:15 | NE 26 | 12.87 | Overcast | OVC004 | 17 | 17 | 100% | 75.9 | 0.0 | |||||||
| 30 | 05:55 | NE 30 | 14.48 | Overcast | OVC004 | 17 | 17 | 100% | 75.87 | 0.0 | |||||||
| 30 | 05:35 | NE 28 | 14.48 | Overcast | OVC004 | 17 | 17 | 100% | 75.92 | 0.0 | |||||||
| 30 | 05:15 | NE 28 | 9.66 | Fog/Mist | OVC003 | 17 | 17 | 100% | 75.9 | 0.0 | |||||||
| 30 | 04:55 | NE 33 | 12.87 | Overcast and Breezy | OVC004 | 17 | 17 | 100% | 75.87 | 0.0 | |||||||
| 30 | 04:35 | NE 31 | 9.66 | Fog/Mist | OVC003 | 17 | 17 | 100% | 75.87 | 0.0 | |||||||
| 30 | 04:15 | NE 33 | 8.05 | Fog/Mist and Breezy | BKN003 OVC014 | 17 | 17 | 100% | 75.87 | 0.0 | |||||||
| 30 | 03:55 | NE 28 | 14.48 | Overcast | SCT004 OVC014 | 17 | 17 | 100% | 75.87 | 0.0 | |||||||
| 30 | 03:35 | NE 30 | 16.09 | Overcast | FEW004 BKN013 OVC020 | 17 | 17 | 100% | 75.84 | 0.0 | |||||||
| 30 | 03:15 | NE 24 | 16.09 | Overcast | FEW005 OVC013 | 17 | 17 | 100% | 75.87 | 0.0 | |||||||
| 30 | 02:55 | NE 22 | 16.09 | Overcast | SCT005 OVC013 | 17 | 17 | 100% | 75.87 | 0.0 | |||||||
| 30 | 02:35 | NE 20 | 16.09 | Overcast | BKN005 OVC013 | 17 | 17 | 100% | 75.87 | 0.0 | |||||||
| 30 | 02:15 | NE 20 | 16.09 | Overcast | BKN007 OVC013 | 17 | 17 | 100% | 75.87 | 0.0 | |||||||
| 30 | 01:55 | Vrbl 9 G 28 | 16.09 | Overcast | SCT008 OVC012 | 18 | 17 | 94% | 75.87 | 0.0 | |||||||
| 30 | 01:35 | E 20 | 16.09 | Overcast | OVC012 | 18 | 17 | 94% | 75.9 | 0.0 | |||||||
| 30 | 01:15 | NE 24 | 16.09 | Overcast | OVC011 | 18 | 17 | 94% | 75.9 | 0.0 | |||||||
| 30 | 00:55 | NE 24 | 16.09 | Overcast | OVC012 | 17 | 17 | 100% | 75.95 | 0.0 | |||||||
| 30 | 00:35 | NE 26 | 16.09 | Overcast | OVC012 | 17 | 17 | 100% | 75.95 | 0.0 | |||||||
| 30 | 00:15 | NE 22 | 16.09 | Overcast | OVC013 | 17 | 17 | 100% | 75.97 | 0.0 | |||||||
| 29 | 23:55 | NE 24 | 16.09 | Overcast | BKN012 OVC020 | 17 | 17 | 100% | 75.97 | 0.0 | |||||||
| 29 | 23:35 | NE 20 | 16.09 | Overcast | FEW013 OVC020 | 17 | 17 | 100% | 75.97 | 0.0 | |||||||
| 29 | 23:15 | NE 19 G 28 | 16.09 | Overcast | SCT004 BKN013 OVC021 | 17 | 17 | 100% | 75.95 | 0.0 | |||||||
| 29 | 22:55 | NE 20 | 16.09 | Overcast | BKN004 BKN008 OVC012 | 17 | 17 | 100% | 75.95 | 0.0 | |||||||
| 29 | 22:35 | NE 17 | 16.09 | Overcast | BKN007 OVC010 | 17 | 17 | 100% | 75.95 | 0.0 | |||||||
| 29 | 22:15 | NE 17 G 26 | 16.09 | Overcast | OVC009 | 17 | 17 | 100% | 75.95 | 0.0 | |||||||
| 29 | 21:55 | NE 22 | 16.09 | Overcast | OVC008 | 17 | 17 | 100% | 75.92 | 0.0 | |||||||
| 29 | 21:35 | NE 17 | 16.09 | Overcast | OVC008 | 17 | 17 | 100% | 75.95 | 0.0 | |||||||
| 29 | 21:15 | NE 20 | 16.09 | Overcast | OVC008 | 17 | 17 | 100% | 75.95 | 0.0 | |||||||
| 29 | 20:55 | NE 20 | 16.09 | Overcast | OVC008 | 17 | 17 | 100% | 75.92 | 0.0 | |||||||
| 29 | 20:35 | NE 22 | 16.09 | Overcast | OVC008 | 17 | 17 | 100% | 75.92 | 0.0 | |||||||
| 29 | 20:15 | NE 24 | 16.09 | Overcast | OVC008 | 17 | 17 | 100% | 75.9 | 0.0 | |||||||
| 29 | 19:55 | NE 15 | 16.09 | Overcast | OVC006 | 17 | 17 | 100% | 75.9 | 0.0 | |||||||
| 29 | 19:35 | NE 15 | 16.09 | Overcast | OVC006 | 17 | 17 | 100% | 75.9 | 0.0 | |||||||
| 29 | 19:15 | NE 11 | 16.09 | Overcast | OVC006 | 18 | 18 | 100% | 75.92 | 0.0 | |||||||
| 29 | 18:55 | E 9 | 6.44 | Fog/Mist | BKN004 OVC010 | 18 | 17 | 94% | 75.92 | 0.0 | |||||||
| 29 | 18:35 | E 11 | 8.05 | Fog/Mist | SCT005 BKN010 OVC026 | 17 | 17 | 100% | 75.92 | 0.0 | |||||||
| 29 | 18:15 | E 15 | 2.82 | Light Rain Fog/Mist | FEW005 SCT014 BKN018 | 17 | 17 | 100% | 75.92 | 0.0 | |||||||
| 29 | 17:55 | Vrbl 9 | 6.44 | Light Rain Fog/Mist | OVC017 | 17 | 17 | 100% | 75.92 | 0.0 | |||||||
| 29 | 17:35 | NE 17 | 4.02 | Light Rain Fog/Mist | BKN017 OVC023 | 17 | 17 | 100% | 75.92 | 0.0 | |||||||
| 29 | 17:15 | Vrbl 11 G 26 | 16.09 | Overcast | SCT020 BKN024 OVC031 | 17 | 17 | 100% | 75.92 | 0.0 | |||||||
| 29 | 16:35 | NE 20 | 16.09 | Overcast | FEW021 OVC035 | 17 | 17 | 100% | 75.9 | 0.0 | |||||||
| 29 | 16:15 | NE 24 | 16.09 | Overcast | FEW004 SCT022 OVC035 | 17 | 17 | 100% | 75.9 | 0.0 | |||||||
| 29 | 15:35 | NE 20 | 16.09 | NULL | NULL | 17 | 17 | 100% | 75.92 | 0.0 | |||||||
| 29 | 15:15 | NE 24 | 16.09 | NULL | NULL | 18 | 18 | 100% | 75.92 | 0.0 | |||||||
| 29 | 14:55 | NE 28 | 16.09 | Mostly Cloudy | SCT026 SCT032 BKN047 | 18 | 18 | 100% | 75.92 | 0.0 | |||||||
| 29 | 14:35 | NE 28 | 16.09 | Overcast | FEW011 BKN021 OVC030 | 18 | 18 | 100% | 75.92 | 0.0 | |||||||
| 29 | 14:15 | NE 28 | 16.09 | Overcast | BKN011 OVC021 | 18 | 18 | 100% | 75.95 | 0.0 | |||||||
| 29 | 13:55 | NE 26 | 16.09 | Overcast | BKN010 OVC021 | 18 | 18 | 100% | 75.95 | 0.0 | |||||||
| 29 | 13:35 | NE 26 | 16.09 | NULL | NULL | 18 | 18 | 100% | 75.95 | 0.0 | |||||||
| 29 | 13:15 | NE 30 | 0.00 | NULL | NULL | 18 | 17 | 94% | 75.95 | 0.0 | |||||||
| 29 | 12:55 | NE 33 | 16.09 | Overcast and Breezy | OVC012 | 17 | 17 | 100% | 75.95 | 0.0 | |||||||
| 29 | 12:35 | NE 31 | 16.09 | Overcast | OVC012 | 17 | 17 | 100% | 75.97 | 0.0 | |||||||
| 29 | 12:15 | NE 28 | 16.09 | Overcast | OVC012 | 17 | 17 | 100% | 75.97 | 0.0 | |||||||
| 29 | 11:55 | NE 30 G 43 | 16.09 | Overcast | OVC011 | 17 | 17 | 100% | 76 | 0.0 | |||||||
| 29 | 11:35 | NE 22 | 16.09 | Overcast | OVC011 | 18 | 18 | 100% | 76 | 0.0 | |||||||
| 29 | 11:15 | NE 30 | 16.09 | Overcast | OVC012 | 17 | 17 | 100% | 76 | 0.0 | |||||||
| 29 | 10:55 | NE 31 | 16.09 | Overcast | OVC012 | 18 | 18 | 100% | 75.97 | 0.0 | |||||||
| 29 | 10:35 | NE 30 | 16.09 | Light Rain | OVC015 | 17 | 17 | 100% | 75.97 | 0.0 | |||||||
| 29 | 10:15 | E 13 G 31 | 16.09 | Overcast | FEW007 BKN013 OVC017 | 17 | 17 | 100% | 75.97 | 0.0 | |||||||
| 29 | 09:55 | Calm | 16.09 | Overcast | OVC012 | 18 | 18 | 100% | 0 | 0.0 | 0.03 | ||||||
| 29 | 09:35 | Vrbl 9 | 6.44 | Light Rain Fog/Mist | OVC013 | 18 | 18 | 100% | 76.02 | 0.0 | |||||||
| 29 | 09:15 | NE 13 | 12.87 | Light Rain | SCT008 OVC012 | 17 | 17 | 100% | 76.05 | 0.0 | |||||||
| 29 | 08:55 | NE 24 | 9.66 | Light Rain Fog/Mist | BKN007 | 17 | 17 | 100% | 76.07 | 0.0 | 0.13 | ||||||
| 29 | 08:35 | NE 7 | 11.27 | Light Rain | FEW005 FEW010 SCT036 | 17 | 17 | 100% | 76.1 | 0.0 | |||||||
| 29 | 08:15 | NE 7 | 6.44 | Light Rain Fog/Mist | SCT006 BKN011 BKN037 | 16 | 16 | 100% | 76.12 | 0.0 | |||||||
| 29 | 07:55 | NE 13 | 8.05 | Light Rain Fog/Mist | BKN005 BKN040 OVC120 | 17 | 16 | 94% | 76.12 | 0.0 | 0.08 | ||||||
| 29 | 07:35 | E 9 G 22 | 9.66 | Light Rain Fog/Mist | FEW006 SCT047 OVC110 | 17 | 16 | 94% | 76.1 | 0.0 | |||||||
| 29 | 07:15 | NE 22 | 6.44 | Light Rain Fog/Mist | SCT006 BKN070 OVC100 | 16 | 16 | 100% | 76.1 | 0.0 | |||||||
| 29 | 06:55 | NE 24 | 16.09 | Overcast | BKN005 OVC100 | 17 | 17 | 100% | 76.12 | 0.0 | |||||||
| 29 | 06:35 | NE 26 | 16.09 | Overcast | OVC005 | 17 | 17 | 100% | 76.1 | 0.0 | |||||||
| 29 | 06:15 | NE 24 | 16.09 | Overcast | OVC005 | 17 | 17 | 100% | 76.1 | 0.0 | |||||||
| 29 | 05:55 | NE 24 | 16.09 | Overcast | BKN005 OVC043 | 17 | 17 | 100% | 76.07 | 0.0 | |||||||
| 29 | 05:35 | NE 20 | 16.09 | Overcast | OVC005 | 17 | 17 | 100% | 76.1 | 0.0 | |||||||
| 29 | 05:15 | NE 20 | 16.09 | Overcast | OVC005 | 17 | 17 | 100% | 76.07 | 0.0 | |||||||
| 29 | 04:55 | NE 22 | 16.09 | Overcast | OVC006 | 17 | 17 | 100% | 76.07 | 0.0 | |||||||
| 29 | 04:35 | NE 19 | 16.09 | Overcast | OVC007 | 17 | 17 | 100% | 76.1 | 0.0 | |||||||
| 29 | 04:15 | NE 19 | 16.09 | Overcast | BKN007 BKN080 OVC090 | 17 | 17 | 100% | 76.12 | 0.0 | |||||||
| 29 | 03:55 | NE 17 | 16.09 | Overcast | FEW006 OVC085 | 17 | 17 | 100% | 76.15 | 0.0 | |||||||
| 29 | 03:35 | E 11 | 16.09 | Overcast | OVC080 | 17 | 17 | 100% | 76.15 | 0.0 | |||||||
| 29 | 03:15 | NE 20 | 16.09 | Overcast | FEW065 OVC080 | 17 | 17 | 100% | 76.17 | 0.0 | |||||||
| 29 | 02:55 | NE 24 | 16.09 | Overcast | FEW029 BKN065 OVC085 | 17 | 17 | 100% | 76.15 | 0.0 | |||||||
| 29 | 02:35 | NE 24 | 16.09 | Overcast | SCT047 BKN055 OVC095 | 17 | 16 | 94% | 76.15 | 0.0 | |||||||
| 29 | 02:15 | NE 28 | 16.09 | Overcast | SCT048 BKN055 OVC075 | 17 | 17 | 100% | 76.17 | 0.0 | |||||||
| 29 | 01:55 | NE 26 | 16.09 | Overcast | BKN055 OVC080 | 17 | 17 | 100% | 76.17 | 0.0 | |||||||
| 29 | 01:35 | NE 26 | 16.09 | Overcast | FEW055 OVC080 | 17 | 17 | 100% | 76.2 | 0.0 | |||||||
| 29 | 01:15 | NE 26 | 16.09 | Overcast | BKN075 OVC090 | 17 | 16 | 94% | 76.2 | 0.0 | |||||||
| 29 | 00:55 | NE 24 | 16.09 | Overcast | OVC075 | 17 | 17 | 100% | 76.2 | 0.0 | |||||||
| 29 | 00:35 | NE 24 | 16.09 | Overcast | OVC075 | 18 | 16 | 88% | 76.2 | 0.0 | |||||||
| 29 | 00:15 | NE 22 | 16.09 | Mostly Cloudy | FEW050 BKN070 | 18 | 16 | 88% | 76.2 | 0.0 | |||||||
| 28 | 23:55 | NE 22 | 16.09 | Mostly Cloudy | FEW033 SCT045 BKN075 | 18 | 16 | 88% | 76.23 | 0.0 | |||||||
| 28 | 23:35 | NE 20 | 16.09 | Mostly Cloudy | BKN048 | 18 | 16 | 88% | 76.2 | 0.0 | |||||||
| 28 | 23:15 | NE 20 | 16.09 | Mostly Cloudy | FEW039 BKN049 BKN055 | 18 | 16 | 88% | 76.23 | 0.0 | |||||||
| 28 | 22:55 | NE 20 | 16.09 | Overcast | BKN036 BKN042 OVC049 | 18 | 16 | 88% | 76.25 | 0.0 | |||||||
| 28 | 22:35 | NE 15 | 16.09 | Overcast | SCT034 BKN041 OVC048 | 18 | 16 | 88% | 76.23 | 0.0 | |||||||
| 28 | 22:15 | NE 15 | 16.09 | Mostly Cloudy | FEW039 BKN048 BKN060 | 18 | 16 | 88% | 76.23 | 0.0 | |||||||
| 28 | 21:55 | NE 17 | 16.09 | Partly Cloudy | FEW040 FEW046 SCT110 | 18 | 16 | 88% | 76.25 | 0.0 | |||||||
| 28 | 21:35 | NE 20 | 16.09 | A Few Clouds | FEW043 FEW050 | 18 | 16 | 88% | 76.25 | 0.0 | |||||||
| 28 | 21:15 | NE 20 | 16.09 | A Few Clouds | FEW045 | 18 | 17 | 94% | 76.25 | 0.0 | |||||||
| 28 | 20:55 | NE 19 | 16.09 | A Few Clouds | FEW045 | 18 | 17 | 94% | 76.25 | 0.0 | |||||||
| 28 | 20:35 | NE 17 | 16.09 | Fair | CLR | 18 | 17 | 94% | 76.25 | 0.0 | |||||||
| 28 | 20:15 | NE 19 | 16.09 | A Few Clouds | FEW006 | 17 | 17 | 100% | 76.25 | 0.0 | |||||||
| 28 | 19:55 | NE 15 | 16.09 | Partly Cloudy | SCT006 | 17 | 17 | 100% | 76.23 | 0.0 | |||||||
| 28 | 19:35 | NE 15 | 16.09 | A Few Clouds | FEW005 | 17 | 17 | 100% | 76.25 | 0.0 | |||||||
| 28 | 19:15 | NE 13 | 16.09 | A Few Clouds | FEW005 | 18 | 18 | 100% | 76.23 | 0.0 | |||||||
| 28 | 18:55 | NE 13 | 16.09 | A Few Clouds | FEW005 | 18 | 18 | 100% | 76.25 | 0.0 | |||||||
| 28 | 18:35 | NE 13 | 16.09 | Fair | CLR | 18 | 18 | 100% | 76.28 | 0.0 | |||||||
| 28 | 18:15 | NE 11 | 16.09 | Fair | CLR | 18 | 18 | 100% | 76.28 | 0.0 | |||||||
| Date | Time (cdt) | Wind (kph) | Vis. (km) | Weather | Sky Cond. | Air | Dwpt | Max. | Min. | Relative Humidity | Wind Chill (°C) | Heat Index (°C) | altimeter (cm) | sea level (mb) | 1 hr | 3 hr | 6 hr |
| 6 hour | |||||||||||||||||
| Temperature (ºC) | Pressure | Precipitation (cm) | |||||||||||||||